Time;durP1;ratioP1;P1;durP2;ratioP2;P2;SDS_P1;SDS_P2;PMS_P1;PMS_P2;Temp;Humidity;BMP_temperature;BMP_pressure;BME280_temperature;BME280_humidity;BME280_pressure;Samples;Min_cycle;Max_cycle;Signal;HPM_P1;HPM_P2
2021/12/23 00:01:20;;;;;;;5.22;3.50;;;;;;;;;;5049178;28;20053;-62
2021/12/23 00:03:47;;;;;;;5.43;3.67;;;;;;;;;;5057874;28;20088;-62
2021/12/23 00:06:13;;;;;;;6.32;3.92;;;;;;;;;;5055892;28;20041;-62
2021/12/23 00:08:43;;;;;;;6.22;4.00;;;;;;;;;;5062347;28;20140;-62
2021/12/23 00:11:09;;;;;;;5.50;3.38;;;;;;;;;;5059292;28;20098;-62
2021/12/23 00:13:36;;;;;;;7.43;3.95;;;;;;;;;;5060457;28;20072;-62
2021/12/23 00:16:17;;;;;;;8.15;3.83;;;;;;;;;;5061449;28;20143;-62
2021/12/23 00:18:48;;;;;;;4.75;3.50;;;;;;;;;;5057632;28;20090;-62
2021/12/23 00:24:06;;;;;;;6.43;4.15;;;;;;;;;;5059874;28;20081;-62
2021/12/23 00:26:39;;;;;;;7.30;4.25;;;;;;;;;;5058351;28;20557;-62
2021/12/23 00:29:06;;;;;;;8.90;4.30;;;;;;;;;;5058067;28;20072;-62
2021/12/23 00:31:33;;;;;;;4.95;3.15;;;;;;;;;;5064497;28;20037;-62
2021/12/23 00:34:02;;;;;;;6.85;3.97;;;;;;;;;;5059377;28;20167;-62
2021/12/23 00:36:30;;;;;;;8.73;4.72;;;;;;;;;;5042503;28;20045;-62
2021/12/23 00:38:57;;;;;;;6.00;4.20;;;;;;;;;;5059428;28;20056;-62
2021/12/23 00:41:30;;;;;;;7.97;4.40;;;;;;;;;;5058173;28;20136;-62
2021/12/23 00:43:57;;;;;;;6.53;4.13;;;;;;;;;;5053777;28;20045;-62
2021/12/23 00:46:23;;;;;;;4.15;3.03;;;;;;;;;;5062887;27;20139;-62
2021/12/23 00:48:50;;;;;;;8.32;5.07;;;;;;;;;;5059595;28;20127;-62
2021/12/23 00:51:18;;;;;;;7.32;4.07;;;;;;;;;;5054559;28;20087;-62
2021/12/23 00:53:46;;;;;;;;;;;;;;;;;;5060000;28;20050;-62
2021/12/23 00:56:20;;;;;;;6.50;4.18;;;;;;;;;;5079485;28;20002;-62
2021/12/23 00:58:46;;;;;;;9.05;4.63;;;;;;;;;;5076716;28;20140;-62
2021/12/23 01:01:13;;;;;;;9.32;4.47;;;;;;;;;;5080802;28;20135;-62
2021/12/23 01:03:46;;;;;;;5.70;3.75;;;;;;;;;;5058543;28;20060;-63
2021/12/23 01:06:12;;;;;;;6.53;4.17;;;;;;;;;;5058361;28;20071;-62
2021/12/23 01:08:39;;;;;;;6.53;3.90;;;;;;;;;;5058608;28;20087;-62
2021/12/23 01:11:09;;;;;;;7.28;5.10;;;;;;;;;;5055886;28;20144;-62
2021/12/23 01:13:37;;;;;;;8.65;4.20;;;;;;;;;;5058803;28;20131;-62
2021/12/23 01:16:07;;;;;;;7.53;4.03;;;;;;;;;;5080618;28;20076;-62
2021/12/23 01:18:38;;;;;;;5.88;3.83;;;;;;;;;;5080059;28;20071;-62
2021/12/23 01:21:16;;;;;;;7.07;4.35;;;;;;;;;;5073492;28;20080;-62
2021/12/23 01:23:44;;;;;;;6.57;4.00;;;;;;;;;;5075645;28;20072;-62
2021/12/23 01:26:12;;;;;;;6.22;4.38;;;;;;;;;;5081627;28;20080;-62
2021/12/23 01:28:38;;;;;;;8.30;4.18;;;;;;;;;;5079376;28;20500;-62
2021/12/23 01:31:11;;;;;;;6.75;4.13;;;;;;;;;;5076815;28;20140;-62
2021/12/23 01:33:38;;;;;;;7.50;4.03;;;;;;;;;;5074551;28;20075;-62
2021/12/23 01:36:06;;;;;;;8.30;4.57;;;;;;;;;;5079952;28;20134;-63
2021/12/23 01:38:32;;;;;;;5.95;4.10;;;;;;;;;;5078414;28;20123;-62
2021/12/23 01:40:59;;;;;;;7.40;4.43;;;;;;;;;;5076670;28;20136;-62
2021/12/23 01:43:25;;;;;;;8.93;4.90;;;;;;;;;;5076956;28;20054;-62
2021/12/23 01:45:58;;;;;;;7.75;4.47;;;;;;;;;;5061730;28;20084;-62
2021/12/23 01:48:25;;;;;;;8.15;4.75;;;;;;;;;;5053634;28;20045;-62
2021/12/23 01:50:52;;;;;;;6.72;4.40;;;;;;;;;;5054619;28;20087;-62
2021/12/23 01:53:18;;;;;;;7.57;4.43;;;;;;;;;;5042473;28;20587;-62
2021/12/23 01:55:45;;;;;;;6.43;4.43;;;;;;;;;;5060943;28;20132;-62
2021/12/23 01:58:13;;;;;;;6.97;3.88;;;;;;;;;;5059889;28;20136;-62
2021/12/23 02:00:39;;;;;;;;;;;;;;;;;;5058205;28;20143;-62
2021/12/23 02:03:07;;;;;;;9.00;4.10;;;;;;;;;;5060945;28;19928;-62
2021/12/23 02:05:34;;;;;;;6.18;3.28;;;;;;;;;;5058773;28;20048;-62
2021/12/23 02:08:15;;;;;;;5.93;3.80;;;;;;;;;;5056484;28;20122;-62
2021/12/23 02:10:44;;;;;;;5.13;3.10;;;;;;;;;;5056167;28;20593;-62
2021/12/23 02:13:10;;;;;;;6.03;3.85;;;;;;;;;;5059638;28;20041;-63
2021/12/23 02:15:37;;;;;;;6.00;3.70;;;;;;;;;;5060131;28;20120;-62
2021/12/23 02:18:10;;;;;;;6.20;3.88;;;;;;;;;;5057114;28;20136;-62
2021/12/23 02:20:37;;;;;;;6.05;3.78;;;;;;;;;;5057054;28;21218;-62
2021/12/23 02:23:04;;;;;;;10.60;4.50;;;;;;;;;;5059328;28;20040;-62
2021/12/23 02:25:36;;;;;;;6.30;3.83;;;;;;;;;;5055595;28;20202;-62
2021/12/23 02:28:07;;;;;;;5.90;3.60;;;;;;;;;;5053912;28;20080;-62
2021/12/23 02:30:38;;;;;;;6.43;4.03;;;;;;;;;;5060068;28;20052;-62
2021/12/23 02:33:06;;;;;;;6.53;4.07;;;;;;;;;;5057041;28;20041;-62
2021/12/23 02:35:33;;;;;;;10.45;3.90;;;;;;;;;;5055185;28;20044;-62
2021/12/23 02:37:59;;;;;;;4.60;3.22;;;;;;;;;;5057657;28;20156;-62
2021/12/23 02:40:26;;;;;;;;;;;;;;;;;;5057153;28;20131;-62
2021/12/23 02:42:54;;;;;;;8.23;4.32;;;;;;;;;;5058720;28;20046;-62
2021/12/23 02:45:20;;;;;;;7.00;4.43;;;;;;;;;;5056452;28;20091;-62
2021/12/23 02:47:47;;;;;;;10.00;4.53;;;;;;;;;;5056469;28;20041;-62
2021/12/23 02:50:18;;;;;;;7.28;4.25;;;;;;;;;;5059756;28;20053;-62
2021/12/23 02:52:44;;;;;;;8.25;4.10;;;;;;;;;;5061360;28;20128;-62
2021/12/23 02:55:11;;;;;;;8.52;4.60;;;;;;;;;;5059661;28;20056;-62
2021/12/23 02:57:37;;;;;;;6.63;4.32;;;;;;;;;;5061547;28;20131;-62
2021/12/23 03:00:05;;;;;;;6.97;4.35;;;;;;;;;;5060213;28;20067;-62
2021/12/23 03:02:31;;;;;;;9.32;4.22;;;;;;;;;;5061347;28;20072;-62
2021/12/23 03:04:58;;;;;;;10.50;3.75;;;;;;;;;;5063505;28;20072;-62
2021/12/23 03:07:24;;;;;;;6.97;4.28;;;;;;;;;;5061471;28;20163;-62
2021/12/23 03:09:51;;;;;;;8.70;4.35;;;;;;;;;;5056904;28;20080;-62
2021/12/23 03:12:18;;;;;;;7.67;4.43;;;;;;;;;;5063036;28;20048;-63
2021/12/23 03:14:44;;;;;;;6.78;4.18;;;;;;;;;;5063369;28;20765;-62
2021/12/23 03:17:13;;;;;;;5.68;3.85;;;;;;;;;;5059068;28;20055;-62
2021/12/23 03:19:39;;;;;;;5.00;3.60;;;;;;;;;;5061714;28;20078;-62
2021/12/23 03:22:05;;;;;;;6.18;3.85;;;;;;;;;;5062719;28;20139;-62
2021/12/23 03:24:32;;;;;;;7.60;4.13;;;;;;;;;;5063403;28;20053;-62
2021/12/23 03:26:58;;;;;;;6.53;3.53;;;;;;;;;;5060957;28;20128;-62
2021/12/23 03:29:25;;;;;;;6.88;3.75;;;;;;;;;;5060738;28;20048;-62
2021/12/23 03:31:55;;;;;;;5.70;3.50;;;;;;;;;;5059795;28;20148;-62
2021/12/23 03:34:21;;;;;;;5.28;3.67;;;;;;;;;;5059435;28;20830;-62
2021/12/23 03:36:47;;;;;;;7.30;3.55;;;;;;;;;;5059309;28;20423;-62
2021/12/23 03:39:20;;;;;;;5.85;3.97;;;;;;;;;;5056623;28;20172;-62
2021/12/23 03:41:47;;;;;;;8.38;4.18;;;;;;;;;;5060399;28;20127;-62
2021/12/23 03:44:14;;;;;;;6.25;4.30;;;;;;;;;;5062138;28;20125;-62
2021/12/23 03:46:42;;;;;;;7.63;4.10;;;;;;;;;;5061782;28;20502;-62
2021/12/23 03:49:09;;;;;;;7.07;4.18;;;;;;;;;;5059964;28;20051;-63
2021/12/23 03:51:36;;;;;;;7.43;4.00;;;;;;;;;;5060725;28;20968;-62
2021/12/23 03:54:03;;;;;;;5.97;3.97;;;;;;;;;;5057839;28;20073;-62
2021/12/23 03:56:30;;;;;;;8.90;4.40;;;;;;;;;;5059428;28;20079;-62
2021/12/23 03:58:57;;;;;;;8.57;4.18;;;;;;;;;;5060629;28;20510;-62
2021/12/23 04:01:27;;;;;;;6.65;3.97;;;;;;;;;;5060863;28;20152;-62
2021/12/23 04:03:54;;;;;;;7.78;4.35;;;;;;;;;;5061626;28;20148;-62
2021/12/23 04:06:21;;;;;;;6.40;3.70;;;;;;;;;;5058347;28;20477;-62
2021/12/23 04:08:55;;;;;;;7.32;4.50;;;;;;;;;;5062217;28;20135;-62
2021/12/23 04:11:22;;;;;;;6.53;4.13;;;;;;;;;;5060369;28;20525;-62
2021/12/23 04:13:49;;;;;;;7.82;4.95;;;;;;;;;;5057799;28;20575;-61
2021/12/23 04:16:16;;;;;;;8.25;5.13;;;;;;;;;;5061339;28;20045;-61
2021/12/23 04:18:45;;;;;;;7.45;4.90;;;;;;;;;;5061560;28;20045;-62
2021/12/23 04:21:13;;;;;;;8.43;4.93;;;;;;;;;;5058933;28;20076;-62
2021/12/23 04:23:39;;;;;;;10.32;5.10;;;;;;;;;;5060503;28;20127;-62
2021/12/23 04:26:09;;;;;;;12.35;5.95;;;;;;;;;;5059888;28;20079;-62
2021/12/23 04:28:45;;;;;;;10.25;5.60;;;;;;;;;;5060103;28;20084;-62
2021/12/23 04:31:15;;;;;;;9.63;6.22;;;;;;;;;;5058333;28;20062;-62
2021/12/23 04:33:42;;;;;;;9.68;5.88;;;;;;;;;;5059094;28;20079;-62
2021/12/23 04:36:08;;;;;;;12.52;5.60;;;;;;;;;;5064100;28;20579;-62
2021/12/23 04:38:42;;;;;;;8.63;5.05;;;;;;;;;;5064152;28;20135;-62
2021/12/23 04:41:09;;;;;;;8.02;5.10;;;;;;;;;;5059658;28;20499;-62
2021/12/23 04:43:36;;;;;;;13.02;6.03;;;;;;;;;;5052774;28;20041;-62
2021/12/23 04:46:10;;;;;;;13.35;6.32;;;;;;;;;;5058189;28;20147;-62
2021/12/23 04:48:37;;;;;;;10.45;5.70;;;;;;;;;;5056014;28;20044;-62
2021/12/23 04:51:04;;;;;;;10.30;5.40;;;;;;;;;;5059001;28;20080;-62
2021/12/23 04:53:30;;;;;;;11.15;6.05;;;;;;;;;;5055143;28;20049;-62
2021/12/23 04:55:58;;;;;;;12.18;5.50;;;;;;;;;;5059658;28;20135;-62
2021/12/23 04:58:24;;;;;;;12.80;6.53;;;;;;;;;;5052553;28;20048;-62
2021/12/23 05:00:51;;;;;;;13.88;5.70;;;;;;;;;;5057768;28;20077;-62
2021/12/23 05:03:27;;;;;;;10.55;5.10;;;;;;;;;;5056258;28;20510;-62
2021/12/23 05:05:54;;;;;;;12.10;6.63;;;;;;;;;;5059723;28;20080;-62
2021/12/23 05:08:20;;;;;;;12.80;6.70;;;;;;;;;;5055608;28;20128;-62
2021/12/23 05:10:53;;;;;;;8.45;4.75;;;;;;;;;;5058906;28;20076;-62
2021/12/23 05:13:20;;;;;;;7.70;4.47;;;;;;;;;;5052970;28;20155;-63
2021/12/23 05:15:46;;;;;;;10.68;5.20;;;;;;;;;;5060704;28;20099;-62
2021/12/23 05:18:16;;;;;;;8.15;4.65;;;;;;;;;;5054434;28;20045;-62
2021/12/23 05:20:44;;;;;;;10.95;4.15;;;;;;;;;;5060779;28;20084;-62
2021/12/23 05:23:10;;;;;;;8.18;3.53;;;;;;;;;;5039128;28;20079;-62
2021/12/23 05:25:36;;;;;;;10.52;4.50;;;;;;;;;;5056609;28;20453;-62
2021/12/23 05:28:03;;;;;;;7.77;4.57;;;;;;;;;;5059445;28;20452;-62
2021/12/23 05:30:30;;;;;;;10.77;6.03;;;;;;;;;;5057615;28;20323;-62
2021/12/23 05:32:57;;;;;;;12.13;5.97;;;;;;;;;;5048180;28;20128;-62
2021/12/23 05:35:24;;;;;;;10.25;5.80;;;;;;;;;;5055583;28;20496;-62
2021/12/23 05:37:51;;;;;;;13.57;6.27;;;;;;;;;;5041269;28;20041;-62
2021/12/23 05:40:25;;;;;;;9.95;5.18;;;;;;;;;;5061119;28;20090;-62
2021/12/23 05:42:52;;;;;;;5.65;3.60;;;;;;;;;;5061156;28;20079;-62
2021/12/23 05:45:19;;;;;;;9.83;5.17;;;;;;;;;;5060471;28;20147;-61
2021/12/23 05:47:46;;;;;;;9.45;5.38;;;;;;;;;;5054262;28;20136;-62
2021/12/23 05:50:13;;;;;;;10.95;5.53;;;;;;;;;;5058197;28;20144;-62
2021/12/23 05:52:39;;;;;;;6.80;4.10;;;;;;;;;;5056639;28;20092;-62
2021/12/23 05:55:07;;;;;;;7.90;4.72;;;;;;;;;;5055667;28;20045;-62
2021/12/23 05:57:34;;;;;;;9.40;4.38;;;;;;;;;;5057637;28;20045;-62
2021/12/23 06:00:01;;;;;;;7.40;4.60;;;;;;;;;;5057446;28;20080;-62
2021/12/23 06:02:28;;;;;;;;;;;;;;;;;;5060209;28;20501;-62
2021/12/23 06:04:54;;;;;;;8.27;4.75;;;;;;;;;;5058639;28;20516;-62
2021/12/23 06:07:21;;;;;;;10.55;5.95;;;;;;;;;;5057372;28;20041;-62
2021/12/23 06:09:55;;;;;;;18.13;7.28;;;;;;;;;;5055895;28;20080;-62
2021/12/23 06:12:21;;;;;;;17.25;7.72;;;;;;;;;;5059323;28;20501;-62
2021/12/23 06:14:47;;;;;;;15.30;6.63;;;;;;;;;;5056455;28;20769;-62
2021/12/23 06:17:15;;;;;;;14.07;6.75;;;;;;;;;;5060843;28;20533;-62
2021/12/23 06:19:41;;;;;;;17.60;8.18;;;;;;;;;;5054623;28;20074;-62
2021/12/23 06:22:08;;;;;;;13.15;6.82;;;;;;;;;;5065330;28;20081;-62
2021/12/23 06:24:36;;;;;;;15.20;7.07;;;;;;;;;;5060273;28;20047;-62
2021/12/23 06:27:03;;;;;;;16.45;7.60;;;;;;;;;;5062858;28;20053;-62
2021/12/23 06:29:29;;;;;;;14.65;6.53;;;;;;;;;;5061381;28;20075;-62
2021/12/23 06:31:56;;;;;;;13.93;7.55;;;;;;;;;;5068935;28;20072;-62
2021/12/23 06:34:22;;;;;;;11.43;6.03;;;;;;;;;;5058493;28;20048;-62
2021/12/23 06:36:49;;;;;;;11.18;6.15;;;;;;;;;;5063088;28;20048;-62
2021/12/23 06:39:15;;;;;;;11.68;6.20;;;;;;;;;;5063913;28;20349;-62
2021/12/23 06:41:42;;;;;;;14.57;7.35;;;;;;;;;;5062704;28;20131;-62
2021/12/23 06:44:08;;;;;;;12.90;6.20;;;;;;;;;;5056683;28;20441;-62
2021/12/23 06:46:37;;;;;;;12.63;7.18;;;;;;;;;;5058907;28;20060;-62
2021/12/23 06:49:04;;;;;;;15.75;7.90;;;;;;;;;;5059216;28;20176;-62
2021/12/23 06:51:31;;;;;;;16.13;7.40;;;;;;;;;;5061957;28;20110;-62
2021/12/23 06:53:59;;;;;;;15.00;7.53;;;;;;;;;;5060298;28;20082;-62
2021/12/23 06:56:26;;;;;;;15.25;7.80;;;;;;;;;;5058688;28;20072;-62
2021/12/23 06:58:52;;;;;;;21.70;8.32;;;;;;;;;;5061156;28;20056;-62
2021/12/23 07:01:21;;;;;;;20.48;8.82;;;;;;;;;;5062320;28;20135;-63
2021/12/23 07:04:13;;;;;;;16.13;6.90;;;;;;;;;;5068242;28;20098;-62
2021/12/23 07:06:55;;;;;;;20.65;9.48;;;;;;;;;;5059485;28;20449;-62
2021/12/23 07:09:22;;;;;;;20.63;8.55;;;;;;;;;;5059982;28;20069;-62
2021/12/23 07:11:51;;;;;;;21.30;8.82;;;;;;;;;;5060479;28;20073;-62
2021/12/23 07:14:17;;;;;;;17.73;8.30;;;;;;;;;;5061940;28;20136;-62
2021/12/23 07:16:44;;;;;;;23.27;10.00;;;;;;;;;;5061833;28;20068;-62
2021/12/23 07:19:17;;;;;;;19.30;9.15;;;;;;;;;;5066479;28;20140;-62
2021/12/23 07:21:44;;;;;;;21.42;8.23;;;;;;;;;;5056523;28;20132;-62
2021/12/23 07:24:10;;;;;;;19.95;9.20;;;;;;;;;;5059120;28;20066;-62
2021/12/23 07:26:37;;;;;;;18.08;8.68;;;;;;;;;;5058979;28;20080;-61
2021/12/23 07:29:04;;;;;;;20.25;8.65;;;;;;;;;;5062515;28;20131;-61
2021/12/23 07:31:31;;;;;;;24.15;9.30;;;;;;;;;;5060171;28;20102;-62
2021/12/23 07:34:02;;;;;;;16.67;8.45;;;;;;;;;;5057029;28;20098;-61
2021/12/23 07:36:29;;;;;;;24.55;12.15;;;;;;;;;;5063040;28;20080;-61
2021/12/23 07:38:55;;;;;;;23.00;11.10;;;;;;;;;;5063172;28;20163;-61
2021/12/23 07:41:22;;;;;;;27.45;11.38;;;;;;;;;;5056189;28;20128;-61
2021/12/23 07:46:22;;;;;;;23.95;10.88;;;;;;;;;;5056837;28;20148;-61
2021/12/23 07:48:50;;;;;;;22.67;10.88;;;;;;;;;;5061720;28;20044;-61
2021/12/23 07:51:16;;;;;;;22.50;11.27;;;;;;;;;;5059859;28;20087;-62
2021/12/23 07:53:42;;;;;;;24.23;10.50;;;;;;;;;;5058154;28;20102;-61
2021/12/23 07:56:09;;;;;;;24.20;10.05;;;;;;;;;;5058970;28;20132;-61
2021/12/23 07:58:35;;;;;;;23.15;9.95;;;;;;;;;;5059025;28;20139;-61
2021/12/23 08:01:02;;;;;;;23.13;9.82;;;;;;;;;;5058856;28;20077;-62
2021/12/23 08:03:28;;;;;;;20.35;9.32;;;;;;;;;;5060663;28;20419;-61
2021/12/23 08:05:55;;;;;;;18.13;8.60;;;;;;;;;;5064404;28;20136;-61
2021/12/23 08:08:29;;;;;;;19.83;9.27;;;;;;;;;;5062615;28;20354;-62
2021/12/23 08:10:55;;;;;;;18.20;9.03;;;;;;;;;;5059522;28;20080;-62
2021/12/23 08:13:21;;;;;;;19.15;8.95;;;;;;;;;;5061755;28;20374;-62
2021/12/23 08:15:50;;;;;;;21.20;9.20;;;;;;;;;;5060699;28;20132;-62
2021/12/23 08:18:17;;;;;;;19.63;8.65;;;;;;;;;;5061321;28;20083;-62
2021/12/23 08:20:43;;;;;;;23.90;10.07;;;;;;;;;;5057287;28;20096;-62
2021/12/23 08:23:11;;;;;;;21.30;9.30;;;;;;;;;;5059422;28;20055;-62
2021/12/23 08:25:38;;;;;;;24.65;10.27;;;;;;;;;;5058748;28;20080;-62
2021/12/23 08:28:04;;;;;;;22.13;9.43;;;;;;;;;;5066028;28;20397;-62
2021/12/23 08:30:34;;;;;;;21.40;10.05;;;;;;;;;;5062978;28;20052;-62
2021/12/23 08:33:01;;;;;;;23.38;10.48;;;;;;;;;;5059804;28;20071;-62
2021/12/23 08:35:27;;;;;;;20.30;9.32;;;;;;;;;;5055149;28;20155;-62
2021/12/23 08:37:54;;;;;;;14.27;7.17;;;;;;;;;;5061096;28;20086;-63
2021/12/23 08:40:22;;;;;;;19.57;9.13;;;;;;;;;;5057273;28;20049;-62
2021/12/23 08:42:49;;;;;;;22.02;10.25;;;;;;;;;;5062397;28;20294;-62
2021/12/23 08:45:17;;;;;;;19.40;9.60;;;;;;;;;;5062820;28;20081;-62
2021/12/23 08:47:45;;;;;;;;;;;;;;;;;;5056662;28;20048;-62
2021/12/23 08:50:18;;;;;;;20.90;8.25;;;;;;;;;;5055175;28;19964;-62
2021/12/23 08:52:51;;;;;;;19.48;8.10;;;;;;;;;;5059085;28;20084;-62
2021/12/23 08:55:18;;;;;;;20.33;8.93;;;;;;;;;;5063532;28;20128;-62
2021/12/23 08:57:45;;;;;;;19.23;8.18;;;;;;;;;;5059123;28;20148;-62
2021/12/23 09:00:16;;;;;;;18.38;8.10;;;;;;;;;;5056068;28;20127;-63
2021/12/23 09:02:42;;;;;;;19.75;8.90;;;;;;;;;;5060029;28;20044;-62
2021/12/23 09:05:09;;;;;;;21.27;9.30;;;;;;;;;;5058391;28;20054;-62
2021/12/23 09:07:36;;;;;;;19.88;8.77;;;;;;;;;;5058020;28;20050;-62
2021/12/23 09:10:03;;;;;;;17.38;8.43;;;;;;;;;;5051992;28;20080;-62
2021/12/23 09:12:30;;;;;;;21.27;8.57;;;;;;;;;;5057106;28;20049;-62
2021/12/23 09:15:00;;;;;;;17.27;8.07;;;;;;;;;;5055030;28;20077;-62
2021/12/23 09:17:26;;;;;;;13.17;5.90;;;;;;;;;;5062037;28;20086;-62
2021/12/23 09:19:53;;;;;;;19.52;9.07;;;;;;;;;;5056842;28;20387;-62
2021/12/23 09:22:26;;;;;;;17.48;8.32;;;;;;;;;;5050942;28;20123;-63
2021/12/23 09:24:56;;;;;;;15.05;7.07;;;;;;;;;;5061689;28;20135;-63
2021/12/23 09:27:54;;;;;;;18.48;8.25;;;;;;;;;;5057299;28;20131;-63
2021/12/23 09:33:01;;;;;;;14.13;7.55;;;;;;;;;;5060133;28;20087;-62
2021/12/23 09:35:48;;;;;;;15.95;7.85;;;;;;;;;;5059411;28;20484;-63
2021/12/23 09:38:15;;;;;;;17.05;8.25;;;;;;;;;;5055334;28;20053;-63
2021/12/23 09:40:45;;;;;;;14.82;7.57;;;;;;;;;;5056561;28;20077;-62
2021/12/23 09:43:12;;;;;;;14.93;7.88;;;;;;;;;;5053524;28;20129;-63
2021/12/23 09:45:40;;;;;;;14.23;7.65;;;;;;;;;;5058691;28;20104;-63
2021/12/23 09:48:07;;;;;;;15.93;7.78;;;;;;;;;;5060583;28;20143;-62
2021/12/23 09:50:36;;;;;;;15.80;8.30;;;;;;;;;;5060066;28;20067;-63
2021/12/23 09:53:03;;;;;;;15.18;7.88;;;;;;;;;;5059835;28;20140;-63
2021/12/23 09:55:33;;;;;;;14.48;7.43;;;;;;;;;;5057073;28;20077;-63
2021/12/23 09:57:59;;;;;;;14.15;7.38;;;;;;;;;;5056996;28;20057;-63
2021/12/23 10:00:27;;;;;;;19.85;8.60;;;;;;;;;;5054086;28;20086;-63
2021/12/23 10:03:01;;;;;;;14.20;6.63;;;;;;;;;;5060506;28;20061;-63
2021/12/23 10:05:28;;;;;;;13.75;7.18;;;;;;;;;;5057252;28;20057;-63
2021/12/23 10:07:55;;;;;;;11.55;6.60;;;;;;;;;;5057123;28;20801;-63
2021/12/23 10:10:31;;;;;;;11.18;6.85;;;;;;;;;;5062784;28;20123;-63
2021/12/23 10:33:28;;;;;;;17.58;7.03;;;;;;;;;;5059366;28;20056;-63
2021/12/23 10:38:38;;;;;;;13.85;7.45;;;;;;;;;;5062113;28;20152;-63
2021/12/23 10:41:06;;;;;;;13.07;7.53;;;;;;;;;;5062635;28;20070;-63
2021/12/23 10:43:38;;;;;;;15.70;7.72;;;;;;;;;;5052571;28;20143;-63
2021/12/23 10:46:11;;;;;;;12.07;7.05;;;;;;;;;;5048127;28;20509;-63
2021/12/23 10:48:45;;;;;;;15.05;7.38;;;;;;;;;;5034870;28;20417;-63
2021/12/23 10:51:17;;;;;;;14.07;7.85;;;;;;;;;;5037337;28;20045;-63
2021/12/23 10:54:08;;;;;;;11.50;7.05;;;;;;;;;;5035734;28;20053;-63
2021/12/23 10:59:31;;;;;;;11.68;6.88;;;;;;;;;;4971698;28;20074;-62
2021/12/23 11:02:29;;;;;;;14.43;7.70;;;;;;;;;;5037335;28;20096;-63
2021/12/23 11:05:22;;;;;;;12.32;7.00;;;;;;;;;;5032107;28;20054;-63
2021/12/23 11:10:52;;;;;;;12.25;7.07;;;;;;;;;;5037320;28;20162;-62
2021/12/23 11:41:04;;;;;;;12.90;6.82;;;;;;;;;;5040019;28;20135;-62
2021/12/23 11:43:46;;;;;;;15.63;7.90;;;;;;;;;;5042179;28;20153;-62
2021/12/23 11:46:16;;;;;;;14.60;7.95;;;;;;;;;;5052883;28;20076;-63
2021/12/23 11:48:45;;;;;;;12.85;7.70;;;;;;;;;;5060800;28;20676;-63
2021/12/23 11:51:19;;;;;;;11.18;7.40;;;;;;;;;;5065028;28;20041;-63
2021/12/23 11:53:48;;;;;;;10.98;6.80;;;;;;;;;;5058612;28;20132;-62
2021/12/23 11:56:16;;;;;;;12.38;6.97;;;;;;;;;;5062790;28;20128;-62
2021/12/23 11:58:45;;;;;;;12.35;7.50;;;;;;;;;;5066178;28;20132;-62
2021/12/23 12:01:21;;;;;;;10.68;7.07;;;;;;;;;;5059870;28;20095;-62
2021/12/23 12:03:53;;;;;;;13.85;7.57;;;;;;;;;;5054388;28;20057;-62
2021/12/23 12:06:23;;;;;;;11.63;7.25;;;;;;;;;;5061499;28;20046;-62
2021/12/23 12:08:52;;;;;;;12.88;7.63;;;;;;;;;;5058701;28;20060;-62
2021/12/23 12:11:23;;;;;;;12.85;7.72;;;;;;;;;;5059147;28;20128;-62
2021/12/23 12:13:52;;;;;;;11.77;7.55;;;;;;;;;;5061427;28;20071;-63
2021/12/23 12:16:25;;;;;;;12.20;7.88;;;;;;;;;;5066944;28;20110;-62
2021/12/23 12:18:52;;;;;;;13.07;8.18;;;;;;;;;;5055632;28;20083;-62
2021/12/23 12:21:26;;;;;;;13.52;7.72;;;;;;;;;;5051296;28;20123;-62
2021/12/23 12:24:12;;;;;;;16.40;8.25;;;;;;;;;;5055434;28;20052;-62
2021/12/23 12:26:52;;;;;;;12.73;7.93;;;;;;;;;;5065048;28;20048;-62
2021/12/23 12:29:25;;;;;;;11.98;7.57;;;;;;;;;;5058094;28;20127;-62
2021/12/23 12:31:51;;;;;;;14.20;7.43;;;;;;;;;;5058845;28;20111;-62
2021/12/23 12:34:19;;;;;;;14.18;8.27;;;;;;;;;;5061646;28;20044;-63
2021/12/23 12:36:50;;;;;;;13.15;8.07;;;;;;;;;;5067763;28;20139;-62
2021/12/23 12:39:24;;;;;;;13.52;8.18;;;;;;;;;;5060988;28;20480;-62
2021/12/23 12:41:52;;;;;;;14.20;8.27;;;;;;;;;;5055646;28;20127;-62
2021/12/23 12:44:32;;;;;;;16.83;9.05;;;;;;;;;;5057770;28;20080;-62
2021/12/23 12:47:16;;;;;;;24.80;11.55;;;;;;;;;;5063993;28;20139;-62
2021/12/23 12:49:47;;;;;;;83.80;21.15;;;;;;;;;;5061614;28;20191;-62
2021/12/23 12:52:23;;;;;;;101.20;24.75;;;;;;;;;;5048747;28;20131;-62
2021/12/23 12:54:54;;;;;;;53.42;18.70;;;;;;;;;;5060938;28;20127;-62
2021/12/23 12:57:23;;;;;;;39.08;17.48;;;;;;;;;;5060692;28;20123;-62
2021/12/23 12:59:49;;;;;;;20.35;11.05;;;;;;;;;;5059587;28;20143;-62
2021/12/23 13:02:18;;;;;;;19.38;10.82;;;;;;;;;;5059121;28;20179;-62
2021/12/23 13:04:49;;;;;;;18.48;9.82;;;;;;;;;;5060168;28;20076;-62
2021/12/23 13:07:29;;;;;;;16.05;8.85;;;;;;;;;;5060489;28;20563;-62
2021/12/23 13:10:16;;;;;;;16.42;8.90;;;;;;;;;;5061352;28;20128;-62
2021/12/23 13:12:54;;;;;;;16.83;9.00;;;;;;;;;;5060530;28;20057;-62
2021/12/23 13:15:24;;;;;;;22.65;10.13;;;;;;;;;;5059226;28;20079;-62
2021/12/23 13:18:04;;;;;;;16.65;9.88;;;;;;;;;;5060333;28;20076;-62
2021/12/23 13:20:32;;;;;;;20.13;10.80;;;;;;;;;;5067904;28;20127;-62
2021/12/23 13:22:59;;;;;;;21.08;10.82;;;;;;;;;;5054074;28;20140;-62
2021/12/23 13:25:26;;;;;;;21.83;12.13;;;;;;;;;;5056602;28;20056;-62
2021/12/23 13:27:53;;;;;;;25.05;12.52;;;;;;;;;;5057093;28;20076;-62
2021/12/23 13:30:20;;;;;;;26.73;13.75;;;;;;;;;;5063032;28;20127;-62
2021/12/23 13:32:59;;;;;;;26.50;14.02;;;;;;;;;;5060878;28;20136;-62
2021/12/23 13:35:27;;;;;;;27.13;14.65;;;;;;;;;;5058988;28;20103;-62
2021/12/23 13:37:54;;;;;;;25.33;13.10;;;;;;;;;;5059050;28;20572;-62
2021/12/23 13:40:28;;;;;;;23.05;12.07;;;;;;;;;;5059903;28;20151;-62
2021/12/23 13:43:01;;;;;;;21.60;11.43;;;;;;;;;;5060009;28;20131;-62
2021/12/23 13:45:28;;;;;;;25.55;12.40;;;;;;;;;;5058923;28;20131;-62
2021/12/23 13:47:56;;;;;;;20.50;11.02;;;;;;;;;;5057323;28;20071;-62
2021/12/23 13:50:23;;;;;;;22.52;11.45;;;;;;;;;;5056629;28;20052;-62
2021/12/23 13:52:50;;;;;;;;;;;;;;;;;;5060769;28;20141;-62
2021/12/23 13:55:18;;;;;;;20.48;10.20;;;;;;;;;;5059488;28;20030;-62
2021/12/23 13:57:56;;;;;;;17.70;9.95;;;;;;;;;;5057995;28;20079;-62
2021/12/23 14:00:27;;;;;;;24.17;11.43;;;;;;;;;;5062094;28;20083;-62
2021/12/23 14:03:03;;;;;;;22.15;10.98;;;;;;;;;;5057768;28;20726;-62
2021/12/23 14:05:30;;;;;;;23.40;10.98;;;;;;;;;;5058141;28;20049;-62
2021/12/23 14:07:58;;;;;;;19.98;10.45;;;;;;;;;;5054149;28;20110;-62
2021/12/23 14:10:27;;;;;;;22.60;11.02;;;;;;;;;;5059699;28;20568;-62
2021/12/23 14:13:05;;;;;;;21.67;11.00;;;;;;;;;;5055377;28;20110;-62
2021/12/23 14:15:36;;;;;;;21.35;10.30;;;;;;;;;;5059181;28;20090;-62
2021/12/23 14:18:14;;;;;;;22.05;10.98;;;;;;;;;;5060168;28;20135;-62
2021/12/23 14:23:25;;;;;;;27.33;12.10;;;;;;;;;;5056089;28;20068;-62
2021/12/23 14:26:02;;;;;;;23.30;11.48;;;;;;;;;;5054747;28;20140;-62
2021/12/23 14:28:28;;;;;;;26.42;12.43;;;;;;;;;;5057060;28;20135;-62
2021/12/23 14:30:57;;;;;;;28.38;13.35;;;;;;;;;;5063260;28;20076;-62
2021/12/23 14:33:35;;;;;;;26.48;13.18;;;;;;;;;;5054249;28;20045;-62
2021/12/23 14:36:12;;;;;;;27.42;11.75;;;;;;;;;;5039219;28;20156;-62
2021/12/23 14:38:46;;;;;;;21.83;11.02;;;;;;;;;;5062500;28;20108;-62
2021/12/23 14:41:14;;;;;;;19.42;9.82;;;;;;;;;;5061259;28;20132;-62
2021/12/23 14:43:54;;;;;;;19.88;10.82;;;;;;;;;;5056536;28;20087;-62
2021/12/23 14:46:32;;;;;;;20.83;10.60;;;;;;;;;;5056450;28;20053;-62
2021/12/23 14:51:26;;;;;;;24.02;10.80;;;;;;;;;;5059209;28;20127;-62
2021/12/23 14:54:12;;;;;;;21.48;10.27;;;;;;;;;;5084552;28;20139;-62
2021/12/23 14:56:43;;;;;;;19.80;9.73;;;;;;;;;;5082999;28;20080;-62
2021/12/23 14:59:21;;;;;;;21.13;9.70;;;;;;;;;;5083267;28;20048;-62
2021/12/23 15:01:49;;;;;;;26.45;11.73;;;;;;;;;;5078034;28;20048;-62
2021/12/23 15:04:17;;;;;;;24.83;11.48;;;;;;;;;;5084377;28;20048;-62
2021/12/23 15:07:04;;;;;;;20.10;9.65;;;;;;;;;;5079756;28;20131;-62
2021/12/23 15:09:40;;;;;;;27.25;12.25;;;;;;;;;;5081778;28;20509;-62
2021/12/23 15:12:10;;;;;;;25.48;12.23;;;;;;;;;;5080884;28;20131;-62
2021/12/23 15:14:45;;;;;;;24.83;12.00;;;;;;;;;;5083260;28;20535;-62
2021/12/23 15:17:17;;;;;;;32.13;12.02;;;;;;;;;;5085872;28;20048;-62
2021/12/23 15:19:49;;;;;;;24.00;11.45;;;;;;;;;;5081663;28;20415;-62
2021/12/23 15:22:21;;;;;;;23.58;11.13;;;;;;;;;;5080190;28;20054;-62
2021/12/23 15:25:01;;;;;;;30.60;12.07;;;;;;;;;;5083878;28;20492;-62
2021/12/23 15:27:30;;;;;;;35.28;14.57;;;;;;;;;;5084710;28;20131;-62
2021/12/23 15:30:03;;;;;;;30.38;12.85;;;;;;;;;;5084654;28;20135;-62
2021/12/23 15:32:31;;;;;;;32.15;13.98;;;;;;;;;;5083459;28;20135;-62
2021/12/23 15:35:02;;;;;;;30.58;13.73;;;;;;;;;;5081076;28;20059;-62
2021/12/23 15:37:31;;;;;;;35.95;13.02;;;;;;;;;;5063103;28;20479;-62
2021/12/23 15:40:06;;;;;;;38.28;13.00;;;;;;;;;;5079237;28;20134;-62
2021/12/23 15:42:50;;;;;;;31.48;13.07;;;;;;;;;;5084289;28;20037;-62
2021/12/23 15:45:23;;;;;;;40.25;13.95;;;;;;;;;;5072923;28;20107;-62
2021/12/23 15:47:56;;;;;;;53.30;14.77;;;;;;;;;;5083054;28;20052;-62
2021/12/23 15:50:23;;;;;;;54.85;15.95;;;;;;;;;;5084737;28;20197;-61
2021/12/23 15:52:50;;;;;;;51.00;17.13;;;;;;;;;;5079539;28;20147;-62
2021/12/23 15:55:16;;;;;;;55.28;17.08;;;;;;;;;;5080775;28;20088;-62
2021/12/23 15:57:43;;;;;;;73.43;18.17;;;;;;;;;;5077286;28;20135;-62